sensor_id;sensor_type;location;lat;lon;timestamp;temperature;humidity
53653;DHT22;39553;52.954;5.932;2023-02-19T00:01:27;8.80;99.90
53653;DHT22;39553;52.954;5.932;2023-02-19T00:03:56;8.80;99.90
53653;DHT22;39553;52.954;5.932;2023-02-19T00:06:24;8.90;99.90
53653;DHT22;39553;52.954;5.932;2023-02-19T00:08:50;8.90;99.90
53653;DHT22;39553;52.954;5.932;2023-02-19T00:11:18;8.80;99.90
53653;DHT22;39553;52.954;5.932;2023-02-19T00:13:47;8.80;99.90
53653;DHT22;39553;52.954;5.932;2023-02-19T00:16:16;8.70;99.90
53653;DHT22;39553;52.954;5.932;2023-02-19T00:18:42;8.80;99.90
53653;DHT22;39553;52.954;5.932;2023-02-19T00:21:08;8.70;99.90
53653;DHT22;39553;52.954;5.932;2023-02-19T00:23:34;8.70;99.90
53653;DHT22;39553;52.954;5.932;2023-02-19T00:26:04;8.70;99.90
53653;DHT22;39553;52.954;5.932;2023-02-19T00:28:30;8.60;99.90
53653;DHT22;39553;52.954;5.932;2023-02-19T00:31:06;8.60;99.90
53653;DHT22;39553;52.954;5.932;2023-02-19T00:33:32;8.60;99.90
53653;DHT22;39553;52.954;5.932;2023-02-19T00:36:02;8.60;99.90
53653;DHT22;39553;52.954;5.932;2023-02-19T00:38:28;8.50;99.90
53653;DHT22;39553;52.954;5.932;2023-02-19T00:40:54;8.50;99.90
53653;DHT22;39553;52.954;5.932;2023-02-19T00:43:20;8.60;99.90
53653;DHT22;39553;52.954;5.932;2023-02-19T00:45:45;8.60;99.90
53653;DHT22;39553;52.954;5.932;2023-02-19T00:48:11;8.60;99.90
53653;DHT22;39553;52.954;5.932;2023-02-19T00:50:37;8.60;99.90
53653;DHT22;39553;52.954;5.932;2023-02-19T00:53:02;8.60;99.90
53653;DHT22;39553;52.954;5.932;2023-02-19T00:55:28;8.60;99.90
53653;DHT22;39553;52.954;5.932;2023-02-19T00:57:54;8.60;99.90
53653;DHT22;39553;52.954;5.932;2023-02-19T01:00:20;8.60;99.90
53653;DHT22;39553;52.954;5.932;2023-02-19T01:02:45;8.60;99.90
53653;DHT22;39553;52.954;5.932;2023-02-19T01:05:11;8.70;99.90
53653;DHT22;39553;52.954;5.932;2023-02-19T01:07:37;8.60;99.90
53653;DHT22;39553;52.954;5.932;2023-02-19T01:10:03;8.70;99.90
53653;DHT22;39553;52.954;5.932;2023-02-19T01:12:30;8.70;99.90
53653;DHT22;39553;52.954;5.932;2023-02-19T01:14:57;8.60;99.90
53653;DHT22;39553;52.954;5.932;2023-02-19T01:17:23;8.60;99.90
53653;DHT22;39553;52.954;5.932;2023-02-19T01:19:49;8.50;99.90
53653;DHT22;39553;52.954;5.932;2023-02-19T01:22:15;8.50;99.90
53653;DHT22;39553;52.954;5.932;2023-02-19T01:24:40;8.40;99.90
53653;DHT22;39553;52.954;5.932;2023-02-19T01:27:06;8.40;99.90
53653;DHT22;39553;52.954;5.932;2023-02-19T01:29:32;8.30;99.90
53653;DHT22;39553;52.954;5.932;2023-02-19T01:31:58;8.40;99.90
53653;DHT22;39553;52.954;5.932;2023-02-19T01:34:25;8.30;99.90
53653;DHT22;39553;52.954;5.932;2023-02-19T01:36:51;8.30;99.90
53653;DHT22;39553;52.954;5.932;2023-02-19T01:39:17;8.30;99.90
53653;DHT22;39553;52.954;5.932;2023-02-19T01:41:42;8.30;99.90
53653;DHT22;39553;52.954;5.932;2023-02-19T01:46:44;8.40;99.90
53653;DHT22;39553;52.954;5.932;2023-02-19T01:51:42;8.40;99.90
53653;DHT22;39553;52.954;5.932;2023-02-19T01:54:12;8.60;99.90
53653;DHT22;39553;52.954;5.932;2023-02-19T01:56:40;8.50;99.90
53653;DHT22;39553;52.954;5.932;2023-02-19T01:59:07;8.40;99.90
53653;DHT22;39553;52.954;5.932;2023-02-19T02:01:36;8.40;99.90
53653;DHT22;39553;52.954;5.932;2023-02-19T02:04:03;8.40;99.90
53653;DHT22;39553;52.954;5.932;2023-02-19T02:06:34;8.30;99.90
53653;DHT22;39553;52.954;5.932;2023-02-19T02:09:02;8.30;99.90
53653;DHT22;39553;52.954;5.932;2023-02-19T02:11:48;8.40;99.90
53653;DHT22;39553;52.954;5.932;2023-02-19T02:14:16;8.30;99.90
53653;DHT22;39553;52.954;5.932;2023-02-19T02:25:32;8.20;99.90
53653;DHT22;39553;52.954;5.932;2023-02-19T02:28:30;8.20;99.90
53653;DHT22;39553;52.954;5.932;2023-02-19T02:31:12;8.10;99.90
53653;DHT22;39553;52.954;5.932;2023-02-19T02:33:58;8.30;99.90
53653;DHT22;39553;52.954;5.932;2023-02-19T02:36:35;8.20;99.90
53653;DHT22;39553;52.954;5.932;2023-02-19T02:39:11;8.20;99.90
53653;DHT22;39553;52.954;5.932;2023-02-19T02:41:49;8.30;99.90
53653;DHT22;39553;52.954;5.932;2023-02-19T02:44:41;8.20;99.90
53653;DHT22;39553;52.954;5.932;2023-02-19T02:47:29;8.20;99.90
53653;DHT22;39553;52.954;5.932;2023-02-19T02:50:13;8.10;99.90
53653;DHT22;39553;52.954;5.932;2023-02-19T02:52:41;8.10;99.90
53653;DHT22;39553;52.954;5.932;2023-02-19T02:55:42;7.90;99.90
53653;DHT22;39553;52.954;5.932;2023-02-19T02:58:08;8.20;99.90
53653;DHT22;39553;52.954;5.932;2023-02-19T03:00:38;8.20;99.90
53653;DHT22;39553;52.954;5.932;2023-02-19T03:03:27;8.10;99.90
53653;DHT22;39553;52.954;5.932;2023-02-19T03:05:58;8.60;99.90
53653;DHT22;39553;52.954;5.932;2023-02-19T03:08:30;8.00;99.90
53653;DHT22;39553;52.954;5.932;2023-02-19T03:11:02;8.00;99.90
53653;DHT22;39553;52.954;5.932;2023-02-19T03:13:52;8.20;99.90
53653;DHT22;39553;52.954;5.932;2023-02-19T03:16:41;8.20;99.90
53653;DHT22;39553;52.954;5.932;2023-02-19T03:19:27;8.10;99.90
53653;DHT22;39553;52.954;5.932;2023-02-19T03:22:14;8.00;99.90
53653;DHT22;39553;52.954;5.932;2023-02-19T03:24:48;8.00;99.90
53653;DHT22;39553;52.954;5.932;2023-02-19T03:27:36;8.10;99.90
53653;DHT22;39553;52.954;5.932;2023-02-19T03:30:10;8.00;99.90
53653;DHT22;39553;52.954;5.932;2023-02-19T03:32:43;8.10;99.90
53653;DHT22;39553;52.954;5.932;2023-02-19T03:35:18;8.00;99.90
53653;DHT22;39553;52.954;5.932;2023-02-19T03:38:05;8.10;99.90
53653;DHT22;39553;52.954;5.932;2023-02-19T03:40:41;8.10;99.90
53653;DHT22;39553;52.954;5.932;2023-02-19T03:43:16;8.00;99.90
53653;DHT22;39553;52.954;5.932;2023-02-19T03:45:59;8.20;99.90
53653;DHT22;39553;52.954;5.932;2023-02-19T03:48:38;8.10;99.90
53653;DHT22;39553;52.954;5.932;2023-02-19T03:54:19;8.00;99.90
53653;DHT22;39553;52.954;5.932;2023-02-19T04:00:12;8.00;99.90
53653;DHT22;39553;52.954;5.932;2023-02-19T04:03:03;7.90;99.90
53653;DHT22;39553;52.954;5.932;2023-02-19T04:05:32;7.90;99.90
53653;DHT22;39553;52.954;5.932;2023-02-19T04:08:05;7.90;99.90
53653;DHT22;39553;52.954;5.932;2023-02-19T04:10:33;7.90;99.90
53653;DHT22;39553;52.954;5.932;2023-02-19T04:13:08;7.90;99.90
53653;DHT22;39553;52.954;5.932;2023-02-19T04:15:35;8.00;99.90
53653;DHT22;39553;52.954;5.932;2023-02-19T04:18:09;7.80;99.90
53653;DHT22;39553;52.954;5.932;2023-02-19T04:20:41;8.00;99.90
53653;DHT22;39553;52.954;5.932;2023-02-19T04:23:08;7.80;99.90
53653;DHT22;39553;52.954;5.932;2023-02-19T04:25:37;7.80;99.90
53653;DHT22;39553;52.954;5.932;2023-02-19T04:28:03;7.90;99.90
53653;DHT22;39553;52.954;5.932;2023-02-19T04:30:29;7.90;99.90
53653;DHT22;39553;52.954;5.932;2023-02-19T04:32:55;7.80;99.90
53653;DHT22;39553;52.954;5.932;2023-02-19T04:35:21;7.80;99.90
53653;DHT22;39553;52.954;5.932;2023-02-19T04:37:46;7.80;99.90
53653;DHT22;39553;52.954;5.932;2023-02-19T04:40:12;7.80;99.90
53653;DHT22;39553;52.954;5.932;2023-02-19T04:42:38;7.70;99.90
53653;DHT22;39553;52.954;5.932;2023-02-19T04:45:04;7.70;99.90
53653;DHT22;39553;52.954;5.932;2023-02-19T04:47:34;7.70;99.90
53653;DHT22;39553;52.954;5.932;2023-02-19T04:50:00;7.60;99.90
53653;DHT22;39553;52.954;5.932;2023-02-19T04:52:26;8.10;99.90
53653;DHT22;39553;52.954;5.932;2023-02-19T04:54:53;7.30;99.90
53653;DHT22;39553;52.954;5.932;2023-02-19T04:57:19;7.20;99.90
53653;DHT22;39553;52.954;5.932;2023-02-19T04:59:45;7.10;99.90
53653;DHT22;39553;52.954;5.932;2023-02-19T05:02:11;7.00;99.90
53653;DHT22;39553;52.954;5.932;2023-02-19T05:04:37;7.10;99.90
53653;DHT22;39553;52.954;5.932;2023-02-19T05:07:02;6.90;99.90
53653;DHT22;39553;52.954;5.932;2023-02-19T05:09:28;6.90;99.90
53653;DHT22;39553;52.954;5.932;2023-02-19T05:11:54;6.90;99.90
53653;DHT22;39553;52.954;5.932;2023-02-19T05:14:20;6.90;99.90
53653;DHT22;39553;52.954;5.932;2023-02-19T05:16:45;6.80;99.90
53653;DHT22;39553;52.954;5.932;2023-02-19T05:19:11;6.70;99.90
53653;DHT22;39553;52.954;5.932;2023-02-19T05:21:37;6.90;99.90
53653;DHT22;39553;52.954;5.932;2023-02-19T05:24:07;8.30;99.90
53653;DHT22;39553;52.954;5.932;2023-02-19T05:26:33;7.00;99.90
53653;DHT22;39553;52.954;5.932;2023-02-19T05:28:59;6.60;99.90
53653;DHT22;39553;52.954;5.932;2023-02-19T05:31:26;6.70;99.90
53653;DHT22;39553;52.954;5.932;2023-02-19T05:33:54;6.60;99.90
53653;DHT22;39553;52.954;5.932;2023-02-19T05:36:20;6.70;99.90
53653;DHT22;39553;52.954;5.932;2023-02-19T05:38:50;6.70;99.90
53653;DHT22;39553;52.954;5.932;2023-02-19T05:41:19;6.50;99.90
53653;DHT22;39553;52.954;5.932;2023-02-19T05:43:47;6.60;99.90
53653;DHT22;39553;52.954;5.932;2023-02-19T05:46:15;6.60;99.90
53653;DHT22;39553;52.954;5.932;2023-02-19T05:48:41;6.60;99.90
53653;DHT22;39553;52.954;5.932;2023-02-19T05:51:11;7.80;99.90
53653;DHT22;39553;52.954;5.932;2023-02-19T05:53:38;7.50;99.90
53653;DHT22;39553;52.954;5.932;2023-02-19T05:56:04;7.40;99.90
53653;DHT22;39553;52.954;5.932;2023-02-19T05:58:30;6.40;99.90
53653;DHT22;39553;52.954;5.932;2023-02-19T06:00:56;6.50;99.90
53653;DHT22;39553;52.954;5.932;2023-02-19T06:03:24;6.30;99.90
53653;DHT22;39553;52.954;5.932;2023-02-19T06:05:49;6.40;99.90
53653;DHT22;39553;52.954;5.932;2023-02-19T06:08:15;6.30;99.90
53653;DHT22;39553;52.954;5.932;2023-02-19T06:10:41;6.20;99.90
53653;DHT22;39553;52.954;5.932;2023-02-19T06:13:08;6.30;99.90
53653;DHT22;39553;52.954;5.932;2023-02-19T06:15:34;5.10;99.90
53653;DHT22;39553;52.954;5.932;2023-02-19T06:18:00;6.40;99.90
53653;DHT22;39553;52.954;5.932;2023-02-19T06:20:26;6.10;99.90
53653;DHT22;39553;52.954;5.932;2023-02-19T06:22:53;6.20;99.90
53653;DHT22;39553;52.954;5.932;2023-02-19T06:25:19;6.10;99.90
53653;DHT22;39553;52.954;5.932;2023-02-19T06:27:45;6.10;99.90
53653;DHT22;39553;52.954;5.932;2023-02-19T06:30:12;6.10;99.90
53653;DHT22;39553;52.954;5.932;2023-02-19T06:32:39;6.20;99.90
53653;DHT22;39553;52.954;5.932;2023-02-19T06:35:06;6.20;99.90
53653;DHT22;39553;52.954;5.932;2023-02-19T06:37:35;6.10;99.90
53653;DHT22;39553;52.954;5.932;2023-02-19T06:40:00;6.40;99.90
53653;DHT22;39553;52.954;5.932;2023-02-19T06:42:31;6.10;99.90
53653;DHT22;39553;52.954;5.932;2023-02-19T06:44:57;6.00;99.90
53653;DHT22;39553;52.954;5.932;2023-02-19T06:47:23;6.00;99.90
53653;DHT22;39553;52.954;5.932;2023-02-19T06:49:48;7.00;99.90
53653;DHT22;39553;52.954;5.932;2023-02-19T06:52:14;5.90;99.90
53653;DHT22;39553;52.954;5.932;2023-02-19T06:54:40;6.40;99.90
53653;DHT22;39553;52.954;5.932;2023-02-19T06:57:05;7.40;99.90
53653;DHT22;39553;52.954;5.932;2023-02-19T06:59:31;6.10;99.90
53653;DHT22;39553;52.954;5.932;2023-02-19T07:02:00;5.90;99.90
53653;DHT22;39553;52.954;5.932;2023-02-19T07:04:25;5.90;99.90
53653;DHT22;39553;52.954;5.932;2023-02-19T07:06:51;6.30;99.90
53653;DHT22;39553;52.954;5.932;2023-02-19T07:09:18;5.90;99.90
53653;DHT22;39553;52.954;5.932;2023-02-19T07:11:45;5.80;99.90
53653;DHT22;39553;52.954;5.932;2023-02-19T07:14:14;5.80;99.90
53653;DHT22;39553;52.954;5.932;2023-02-19T07:16:40;5.80;99.90
53653;DHT22;39553;52.954;5.932;2023-02-19T07:19:06;5.50;99.90
53653;DHT22;39553;52.954;5.932;2023-02-19T07:21:32;5.60;99.90
53653;DHT22;39553;52.954;5.932;2023-02-19T07:24:02;5.60;99.90
53653;DHT22;39553;52.954;5.932;2023-02-19T07:26:29;5.50;99.90
53653;DHT22;39553;52.954;5.932;2023-02-19T07:28:55;5.60;99.90
53653;DHT22;39553;52.954;5.932;2023-02-19T07:31:22;5.70;99.90
53653;DHT22;39553;52.954;5.932;2023-02-19T07:33:49;5.60;99.90
53653;DHT22;39553;52.954;5.932;2023-02-19T07:36:17;6.40;99.90
53653;DHT22;39553;52.954;5.932;2023-02-19T07:38:46;5.70;99.90
53653;DHT22;39553;52.954;5.932;2023-02-19T07:41:12;5.60;99.90
53653;DHT22;39553;52.954;5.932;2023-02-19T07:43:39;5.60;99.90
53653;DHT22;39553;52.954;5.932;2023-02-19T07:46:06;5.90;99.90
53653;DHT22;39553;52.954;5.932;2023-02-19T07:48:34;5.60;99.90
53653;DHT22;39553;52.954;5.932;2023-02-19T07:51:01;5.70;99.90
53653;DHT22;39553;52.954;5.932;2023-02-19T07:53:31;5.70;99.90
53653;DHT22;39553;52.954;5.932;2023-02-19T07:56:00;5.80;99.90
53653;DHT22;39553;52.954;5.932;2023-02-19T07:58:27;6.60;99.90
53653;DHT22;39553;52.954;5.932;2023-02-19T08:00:53;5.80;99.90
53653;DHT22;39553;52.954;5.932;2023-02-19T08:03:18;5.80;99.90
53653;DHT22;39553;52.954;5.932;2023-02-19T08:05:44;6.20;99.90
53653;DHT22;39553;52.954;5.932;2023-02-19T08:08:12;5.80;99.90
53653;DHT22;39553;52.954;5.932;2023-02-19T08:10:39;6.70;99.90
53653;DHT22;39553;52.954;5.932;2023-02-19T08:13:28;5.80;99.90
53653;DHT22;39553;52.954;5.932;2023-02-19T08:18:28;6.00;99.90
53653;DHT22;39553;52.954;5.932;2023-02-19T08:20:55;6.10;99.90
53653;DHT22;39553;52.954;5.932;2023-02-19T08:23:21;6.10;99.90
53653;DHT22;39553;52.954;5.932;2023-02-19T08:25:50;6.20;99.90
53653;DHT22;39553;52.954;5.932;2023-02-19T08:28:16;6.20;99.90
53653;DHT22;39553;52.954;5.932;2023-02-19T08:30:43;6.30;99.90
53653;DHT22;39553;52.954;5.932;2023-02-19T08:33:12;6.30;99.90
53653;DHT22;39553;52.954;5.932;2023-02-19T08:35:38;6.30;99.90
53653;DHT22;39553;52.954;5.932;2023-02-19T08:38:05;6.50;99.90
53653;DHT22;39553;52.954;5.932;2023-02-19T08:40:32;6.20;99.90
53653;DHT22;39553;52.954;5.932;2023-02-19T08:43:05;6.10;99.90
53653;DHT22;39553;52.954;5.932;2023-02-19T08:45:31;6.10;99.90
53653;DHT22;39553;52.954;5.932;2023-02-19T08:47:57;6.70;99.90
53653;DHT22;39553;52.954;5.932;2023-02-19T08:50:24;6.20;99.90
53653;DHT22;39553;52.954;5.932;2023-02-19T08:52:49;6.20;99.90
53653;DHT22;39553;52.954;5.932;2023-02-19T08:55:15;6.20;99.90
53653;DHT22;39553;52.954;5.932;2023-02-19T08:57:41;6.20;99.90
53653;DHT22;39553;52.954;5.932;2023-02-19T09:00:07;6.30;99.90
53653;DHT22;39553;52.954;5.932;2023-02-19T09:02:34;6.40;99.90
53653;DHT22;39553;52.954;5.932;2023-02-19T09:05:00;6.60;99.90
53653;DHT22;39553;52.954;5.932;2023-02-19T09:07:25;6.90;99.90
53653;DHT22;39553;52.954;5.932;2023-02-19T09:09:51;6.90;99.90
53653;DHT22;39553;52.954;5.932;2023-02-19T09:12:17;7.40;99.90
53653;DHT22;39553;52.954;5.932;2023-02-19T09:14:43;7.90;99.90
53653;DHT22;39553;52.954;5.932;2023-02-19T09:17:10;8.70;99.90
53653;DHT22;39553;52.954;5.932;2023-02-19T09:19:36;9.70;99.90
53653;DHT22;39553;52.954;5.932;2023-02-19T09:22:02;10.00;99.90
53653;DHT22;39553;52.954;5.932;2023-02-19T09:24:28;10.50;99.90
53653;DHT22;39553;52.954;5.932;2023-02-19T09:26:55;11.20;99.90
53653;DHT22;39553;52.954;5.932;2023-02-19T09:29:23;11.80;99.90
53653;DHT22;39553;52.954;5.932;2023-02-19T09:31:49;12.30;99.90
53653;DHT22;39553;52.954;5.932;2023-02-19T09:34:15;13.00;99.90
53653;DHT22;39553;52.954;5.932;2023-02-19T09:36:41;13.10;99.90
53653;DHT22;39553;52.954;5.932;2023-02-19T09:39:08;12.70;99.90
53653;DHT22;39553;52.954;5.932;2023-02-19T09:41:41;12.00;99.90
53653;DHT22;39553;52.954;5.932;2023-02-19T09:44:13;11.60;99.90
53653;DHT22;39553;52.954;5.932;2023-02-19T09:46:50;11.70;99.90
53653;DHT22;39553;52.954;5.932;2023-02-19T09:49:18;12.20;99.90
53653;DHT22;39553;52.954;5.932;2023-02-19T09:52:06;11.90;99.90
53653;DHT22;39553;52.954;5.932;2023-02-19T09:54:36;12.20;99.90
53653;DHT22;39553;52.954;5.932;2023-02-19T09:57:03;12.60;99.90
53653;DHT22;39553;52.954;5.932;2023-02-19T09:59:55;12.40;99.90
53653;DHT22;39553;52.954;5.932;2023-02-19T10:02:25;11.70;99.90
53653;DHT22;39553;52.954;5.932;2023-02-19T10:04:52;11.90;99.90
53653;DHT22;39553;52.954;5.932;2023-02-19T10:07:23;12.10;99.90
53653;DHT22;39553;52.954;5.932;2023-02-19T10:12:37;11.40;99.90
53653;DHT22;39553;52.954;5.932;2023-02-19T10:15:37;10.90;99.90
53653;DHT22;39553;52.954;5.932;2023-02-19T10:18:03;10.40;99.90
53653;DHT22;39553;52.954;5.932;2023-02-19T10:20:29;9.80;99.90
53653;DHT22;39553;52.954;5.932;2023-02-19T10:23:01;9.80;99.90
53653;DHT22;39553;52.954;5.932;2023-02-19T10:25:28;9.80;99.90
53653;DHT22;39553;52.954;5.932;2023-02-19T10:27:58;9.90;99.90
53653;DHT22;39553;52.954;5.932;2023-02-19T10:30:27;10.40;99.90
53653;DHT22;39553;52.954;5.932;2023-02-19T10:35:53;10.30;99.90
53653;DHT22;39553;52.954;5.932;2023-02-19T10:38:25;9.80;99.90
53653;DHT22;39553;52.954;5.932;2023-02-19T10:43:36;9.20;99.90
53653;DHT22;39553;52.954;5.932;2023-02-19T10:46:17;9.00;99.90
53653;DHT22;39553;52.954;5.932;2023-02-19T10:48:56;8.80;99.90
53653;DHT22;39553;52.954;5.932;2023-02-19T10:51:37;8.60;99.90
53653;DHT22;39553;52.954;5.932;2023-02-19T10:54:19;8.50;99.90
53653;DHT22;39553;52.954;5.932;2023-02-19T10:56:49;8.30;99.90
53653;DHT22;39553;52.954;5.932;2023-02-19T10:59:25;8.40;99.90
53653;DHT22;39553;52.954;5.932;2023-02-19T11:02:02;8.50;99.90
53653;DHT22;39553;52.954;5.932;2023-02-19T11:04:29;8.90;99.90
53653;DHT22;39553;52.954;5.932;2023-02-19T11:07:07;9.70;99.90
53653;DHT22;39553;52.954;5.932;2023-02-19T11:09:38;10.60;99.90
53653;DHT22;39553;52.954;5.932;2023-02-19T11:12:05;10.70;99.90
53653;DHT22;39553;52.954;5.932;2023-02-19T11:14:32;10.50;99.90
53653;DHT22;39553;52.954;5.932;2023-02-19T11:17:01;10.10;99.90
53653;DHT22;39553;52.954;5.932;2023-02-19T11:19:41;9.70;99.90
53653;DHT22;39553;52.954;5.932;2023-02-19T11:22:37;9.60;99.90
53653;DHT22;39553;52.954;5.932;2023-02-19T11:25:20;9.30;99.90
53653;DHT22;39553;52.954;5.932;2023-02-19T11:27:56;9.20;99.90
53653;DHT22;39553;52.954;5.932;2023-02-19T11:30:31;9.00;99.90
53653;DHT22;39553;52.954;5.932;2023-02-19T11:36:28;9.10;99.90
53653;DHT22;39553;52.954;5.932;2023-02-19T11:38:55;9.10;99.90
53653;DHT22;39553;52.954;5.932;2023-02-19T11:49:49;9.10;99.90
53653;DHT22;39553;52.954;5.932;2023-02-19T12:21:30;9.30;99.90
53653;DHT22;39553;52.954;5.932;2023-02-19T12:45:37;8.30;99.90
53653;DHT22;39553;52.954;5.932;2023-02-19T12:48:23;8.30;99.90
53653;DHT22;39553;52.954;5.932;2023-02-19T12:50:54;8.30;99.90
53653;DHT22;39553;52.954;5.932;2023-02-19T12:53:28;8.40;99.90
53653;DHT22;39553;52.954;5.932;2023-02-19T12:55:55;8.50;99.90
53653;DHT22;39553;52.954;5.932;2023-02-19T13:00:58;8.70;99.90
53653;DHT22;39553;52.954;5.932;2023-02-19T13:03:45;8.90;99.90
53653;DHT22;39553;52.954;5.932;2023-02-19T13:08:50;9.10;99.90
53653;DHT22;39553;52.954;5.932;2023-02-19T13:11:48;9.00;99.90
53653;DHT22;39553;52.954;5.932;2023-02-19T13:14:32;9.00;99.90
53653;DHT22;39553;52.954;5.932;2023-02-19T13:17:25;8.90;99.90
53653;DHT22;39553;52.954;5.932;2023-02-19T13:23:28;8.70;99.90
53653;DHT22;39553;52.954;5.932;2023-02-19T13:35:16;8.70;99.90
53653;DHT22;39553;52.954;5.932;2023-02-19T13:37:46;8.80;99.90
53653;DHT22;39553;52.954;5.932;2023-02-19T13:40:41;8.70;99.90
53653;DHT22;39553;52.954;5.932;2023-02-19T13:43:28;8.80;99.90
53653;DHT22;39553;52.954;5.932;2023-02-19T13:46:14;8.70;99.90
53653;DHT22;39553;52.954;5.932;2023-02-19T13:48:41;8.60;99.90
53653;DHT22;39553;52.954;5.932;2023-02-19T13:59:20;8.50;99.90
53653;DHT22;39553;52.954;5.932;2023-02-19T14:04:54;8.50;99.90
53653;DHT22;39553;52.954;5.932;2023-02-19T14:09:56;8.40;99.90
53653;DHT22;39553;52.954;5.932;2023-02-19T14:12:35;8.30;99.90
53653;DHT22;39553;52.954;5.932;2023-02-19T14:18:01;8.30;99.90
53653;DHT22;39553;52.954;5.932;2023-02-19T14:20:43;8.30;99.90
53653;DHT22;39553;52.954;5.932;2023-02-19T14:23:22;8.30;99.90
53653;DHT22;39553;52.954;5.932;2023-02-19T14:25:51;8.20;99.90
53653;DHT22;39553;52.954;5.932;2023-02-19T14:28:25;8.10;99.90
53653;DHT22;39553;52.954;5.932;2023-02-19T14:31:21;8.10;99.90
53653;DHT22;39553;52.954;5.932;2023-02-19T14:33:51;8.10;99.90
53653;DHT22;39553;52.954;5.932;2023-02-19T14:36:31;8.20;99.90
53653;DHT22;39553;52.954;5.932;2023-02-19T14:41:32;8.30;99.90
53653;DHT22;39553;52.954;5.932;2023-02-19T14:43:59;8.50;99.90
53653;DHT22;39553;52.954;5.932;2023-02-19T14:51:52;8.00;99.90
53653;DHT22;39553;52.954;5.932;2023-02-19T14:57:21;7.90;99.90
53653;DHT22;39553;52.954;5.932;2023-02-19T14:59:56;8.30;99.90
53653;DHT22;39553;52.954;5.932;2023-02-19T15:02:26;7.80;99.90
53653;DHT22;39553;52.954;5.932;2023-02-19T15:04:53;7.70;99.90
53653;DHT22;39553;52.954;5.932;2023-02-19T15:07:22;7.70;99.90
53653;DHT22;39553;52.954;5.932;2023-02-19T15:09:51;7.70;99.90
53653;DHT22;39553;52.954;5.932;2023-02-19T15:12:24;7.80;99.90
53653;DHT22;39553;52.954;5.932;2023-02-19T15:14:53;7.90;99.90
53653;DHT22;39553;52.954;5.932;2023-02-19T15:17:25;7.80;99.90
53653;DHT22;39553;52.954;5.932;2023-02-19T15:19:52;8.00;99.90
53653;DHT22;39553;52.954;5.932;2023-02-19T15:22:21;8.10;99.90
53653;DHT22;39553;52.954;5.932;2023-02-19T15:24:48;8.20;99.90
53653;DHT22;39553;52.954;5.932;2023-02-19T15:27:22;7.90;99.90
53653;DHT22;39553;52.954;5.932;2023-02-19T15:29:50;8.30;99.90
53653;DHT22;39553;52.954;5.932;2023-02-19T15:32:26;8.30;99.90
53653;DHT22;39553;52.954;5.932;2023-02-19T15:35:00;8.20;99.90
53653;DHT22;39553;52.954;5.932;2023-02-19T15:37:31;8.00;99.90
53653;DHT22;39553;52.954;5.932;2023-02-19T15:40:02;7.90;99.90
53653;DHT22;39553;52.954;5.932;2023-02-19T15:42:31;7.80;99.90
53653;DHT22;39553;52.954;5.932;2023-02-19T15:45:16;7.80;99.90
53653;DHT22;39553;52.954;5.932;2023-02-19T15:47:54;7.90;99.90
53653;DHT22;39553;52.954;5.932;2023-02-19T15:50:24;7.90;99.90
53653;DHT22;39553;52.954;5.932;2023-02-19T15:53:01;7.90;99.90
53653;DHT22;39553;52.954;5.932;2023-02-19T15:58:24;7.80;99.90
53653;DHT22;39553;52.954;5.932;2023-02-19T16:01:01;7.80;99.90
53653;DHT22;39553;52.954;5.932;2023-02-19T16:03:29;7.60;99.90
53653;DHT22;39553;52.954;5.932;2023-02-19T16:06:03;7.60;99.90
53653;DHT22;39553;52.954;5.932;2023-02-19T16:08:30;7.50;99.90
53653;DHT22;39553;52.954;5.932;2023-02-19T16:10:59;7.40;99.90
53653;DHT22;39553;52.954;5.932;2023-02-19T16:13:28;7.30;99.90
53653;DHT22;39553;52.954;5.932;2023-02-19T16:18:26;7.20;99.90
53653;DHT22;39553;52.954;5.932;2023-02-19T16:20:52;7.10;99.90
53653;DHT22;39553;52.954;5.932;2023-02-19T16:23:19;7.40;99.90
53653;DHT22;39553;52.954;5.932;2023-02-19T16:26:11;7.00;99.90
53653;DHT22;39553;52.954;5.932;2023-02-19T16:28:40;6.80;99.90
53653;DHT22;39553;52.954;5.932;2023-02-19T16:31:11;6.80;99.90
53653;DHT22;39553;52.954;5.932;2023-02-19T16:41:28;6.60;99.90
53653;DHT22;39553;52.954;5.932;2023-02-19T16:43:53;6.50;99.90
53653;DHT22;39553;52.954;5.932;2023-02-19T16:46:19;6.50;99.90
53653;DHT22;39553;52.954;5.932;2023-02-19T16:48:45;6.50;99.90
53653;DHT22;39553;52.954;5.932;2023-02-19T16:51:20;6.40;99.90
53653;DHT22;39553;52.954;5.932;2023-02-19T16:53:48;6.40;99.90
53653;DHT22;39553;52.954;5.932;2023-02-19T16:56:19;6.30;99.90
53653;DHT22;39553;52.954;5.932;2023-02-19T16:58:48;6.40;99.90
53653;DHT22;39553;52.954;5.932;2023-02-19T17:01:14;6.30;99.90
53653;DHT22;39553;52.954;5.932;2023-02-19T17:03:40;6.30;99.90
53653;DHT22;39553;52.954;5.932;2023-02-19T17:06:06;6.30;99.90
53653;DHT22;39553;52.954;5.932;2023-02-19T17:08:37;6.20;99.90
53653;DHT22;39553;52.954;5.932;2023-02-19T17:11:06;6.30;99.90
53653;DHT22;39553;52.954;5.932;2023-02-19T17:13:32;6.20;99.90
53653;DHT22;39553;52.954;5.932;2023-02-19T17:15:58;7.10;99.90
53653;DHT22;39553;52.954;5.932;2023-02-19T17:18:24;6.20;99.90
53653;DHT22;39553;52.954;5.932;2023-02-19T17:20:55;6.20;99.90
53653;DHT22;39553;52.954;5.932;2023-02-19T17:23:22;6.10;99.90
53653;DHT22;39553;52.954;5.932;2023-02-19T17:25:48;6.20;99.90
53653;DHT22;39553;52.954;5.932;2023-02-19T17:28:13;6.20;99.90
53653;DHT22;39553;52.954;5.932;2023-02-19T17:30:39;6.30;99.90
53653;DHT22;39553;52.954;5.932;2023-02-19T17:33:05;6.30;99.90
53653;DHT22;39553;52.954;5.932;2023-02-19T17:35:31;6.30;99.90
53653;DHT22;39553;52.954;5.932;2023-02-19T17:37:56;6.30;99.90
53653;DHT22;39553;52.954;5.932;2023-02-19T17:40:28;6.40;99.90
53653;DHT22;39553;52.954;5.932;2023-02-19T17:42:54;6.40;99.90
53653;DHT22;39553;52.954;5.932;2023-02-19T17:45:20;6.40;99.90
53653;DHT22;39553;52.954;5.932;2023-02-19T17:47:46;6.40;99.90
53653;DHT22;39553;52.954;5.932;2023-02-19T17:50:21;6.40;99.90
53653;DHT22;39553;52.954;5.932;2023-02-19T17:52:48;6.40;99.90
53653;DHT22;39553;52.954;5.932;2023-02-19T17:55:16;6.90;99.90
53653;DHT22;39553;52.954;5.932;2023-02-19T17:57:46;6.40;99.90
53653;DHT22;39553;52.954;5.932;2023-02-19T18:00:17;6.40;99.90
53653;DHT22;39553;52.954;5.932;2023-02-19T18:02:43;6.40;99.90
53653;DHT22;39553;52.954;5.932;2023-02-19T18:05:09;6.30;99.90
53653;DHT22;39553;52.954;5.932;2023-02-19T18:07:35;6.30;99.90
53653;DHT22;39553;52.954;5.932;2023-02-19T18:10:03;6.20;99.90
53653;DHT22;39553;52.954;5.932;2023-02-19T18:12:29;6.20;99.90
53653;DHT22;39553;52.954;5.932;2023-02-19T18:14:55;6.20;99.90
53653;DHT22;39553;52.954;5.932;2023-02-19T18:17:25;6.10;99.90
53653;DHT22;39553;52.954;5.932;2023-02-19T18:19:51;6.10;99.90
53653;DHT22;39553;52.954;5.932;2023-02-19T18:22:17;6.10;99.90
53653;DHT22;39553;52.954;5.932;2023-02-19T18:24:48;6.00;99.90
53653;DHT22;39553;52.954;5.932;2023-02-19T18:27:15;6.00;99.90
53653;DHT22;39553;52.954;5.932;2023-02-19T18:29:41;6.00;99.90
53653;DHT22;39553;52.954;5.932;2023-02-19T18:32:07;6.00;99.90
53653;DHT22;39553;52.954;5.932;2023-02-19T18:34:33;6.00;99.90
53653;DHT22;39553;52.954;5.932;2023-02-19T18:36:58;5.80;99.90